sensor_id;sensor_type;location;lat;lon;timestamp;pressure;altitude;pressure_sealevel;temperature;humidity
50434;BME280;36361;38.954;-9.002;2023-07-02T00:01:00;100529.03;;;23.86;100.00
50434;BME280;36361;38.954;-9.002;2023-07-02T00:02:19;100537.03;;;23.74;100.00
50434;BME280;36361;38.954;-9.002;2023-07-02T00:03:23;100535.31;;;23.78;100.00
50434;BME280;36361;38.954;-9.002;2023-07-02T00:04:39;100536.84;;;23.84;100.00
50434;BME280;36361;38.954;-9.002;2023-07-02T00:05:46;100537.97;;;23.83;100.00
50434;BME280;36361;38.954;-9.002;2023-07-02T00:07:03;100548.28;;;23.69;100.00
50434;BME280;36361;38.954;-9.002;2023-07-02T00:08:07;100535.72;;;23.85;100.00
50434;BME280;36361;38.954;-9.002;2023-07-02T00:09:23;100529.75;;;23.45;100.00
50434;BME280;36361;38.954;-9.002;2023-07-02T00:10:39;100539.03;;;23.54;100.00
50434;BME280;36361;38.954;-9.002;2023-07-02T00:11:49;100532.69;;;23.68;100.00
50434;BME280;36361;38.954;-9.002;2023-07-02T00:13:05;100536.34;;;23.49;100.00
50434;BME280;36361;38.954;-9.002;2023-07-02T00:14:10;100539.31;;;23.72;100.00
50434;BME280;36361;38.954;-9.002;2023-07-02T00:15:16;100532.97;;;23.52;100.00
50434;BME280;36361;38.954;-9.002;2023-07-02T00:18:01;100534.41;;;24.10;100.00
50434;BME280;36361;38.954;-9.002;2023-07-02T00:19:08;100541.38;;;23.80;100.00
50434;BME280;36361;38.954;-9.002;2023-07-02T00:20:21;100536.97;;;24.06;100.00
50434;BME280;36361;38.954;-9.002;2023-07-02T00:21:36;100531.00;;;23.99;100.00
50434;BME280;36361;38.954;-9.002;2023-07-02T00:22:50;100537.66;;;23.84;100.00
50434;BME280;36361;38.954;-9.002;2023-07-02T00:24:17;100535.59;;;23.76;100.00
50434;BME280;36361;38.954;-9.002;2023-07-02T00:25:29;100536.25;;;24.01;100.00
50434;BME280;36361;38.954;-9.002;2023-07-02T00:26:39;100538.50;;;23.85;100.00
50434;BME280;36361;38.954;-9.002;2023-07-02T00:27:51;100532.22;;;23.47;100.00
50434;BME280;36361;38.954;-9.002;2023-07-02T00:29:08;100531.50;;;23.74;100.00
50434;BME280;36361;38.954;-9.002;2023-07-02T00:30:28;100531.72;;;23.59;100.00
50434;BME280;36361;38.954;-9.002;2023-07-02T00:31:38;100536.25;;;23.87;100.00
50434;BME280;36361;38.954;-9.002;2023-07-02T00:32:53;100524.69;;;23.66;100.00
50434;BME280;36361;38.954;-9.002;2023-07-02T00:34:09;100533.16;;;23.89;100.00
50434;BME280;36361;38.954;-9.002;2023-07-02T00:35:13;100536.34;;;23.49;100.00
50434;BME280;36361;38.954;-9.002;2023-07-02T00:36:27;100525.50;;;23.67;100.00
50434;BME280;36361;38.954;-9.002;2023-07-02T00:37:36;100525.66;;;23.43;100.00
50434;BME280;36361;38.954;-9.002;2023-07-02T00:40:15;100522.22;;;23.65;100.00
50434;BME280;36361;38.954;-9.002;2023-07-02T00:41:34;100521.63;;;24.09;100.00
50434;BME280;36361;38.954;-9.002;2023-07-02T00:42:38;100518.66;;;23.45;100.00
50434;BME280;36361;38.954;-9.002;2023-07-02T00:43:39;100526.91;;;23.50;100.00
50434;BME280;36361;38.954;-9.002;2023-07-02T00:44:46;100522.34;;;23.41;100.00
50434;BME280;36361;38.954;-9.002;2023-07-02T00:45:56;100520.38;;;23.74;100.00
50434;BME280;36361;38.954;-9.002;2023-07-02T00:47:02;100513.41;;;23.90;100.00
50434;BME280;36361;38.954;-9.002;2023-07-02T00:48:07;100517.81;;;23.77;100.00
50434;BME280;36361;38.954;-9.002;2023-07-02T00:49:14;100526.97;;;24.19;100.00
50434;BME280;36361;38.954;-9.002;2023-07-02T00:50:28;100520.09;;;23.89;100.00
50434;BME280;36361;38.954;-9.002;2023-07-02T00:51:38;100517.41;;;24.25;100.00
50434;BME280;36361;38.954;-9.002;2023-07-02T00:52:45;100524.72;;;24.35;100.00
50434;BME280;36361;38.954;-9.002;2023-07-02T00:54:08;100524.00;;;24.43;100.00
50434;BME280;36361;38.954;-9.002;2023-07-02T00:55:12;100518.13;;;24.03;100.00
50434;BME280;36361;38.954;-9.002;2023-07-02T00:56:19;100522.25;;;23.92;100.00
50434;BME280;36361;38.954;-9.002;2023-07-02T00:57:27;100518.53;;;24.10;100.00
50434;BME280;36361;38.954;-9.002;2023-07-02T00:58:45;100523.09;;;24.34;100.00
50434;BME280;36361;38.954;-9.002;2023-07-02T01:00:06;100518.31;;;24.48;100.00
50434;BME280;36361;38.954;-9.002;2023-07-02T01:01:15;100516.66;;;24.47;100.00
50434;BME280;36361;38.954;-9.002;2023-07-02T01:02:32;100518.03;;;24.36;100.00
50434;BME280;36361;38.954;-9.002;2023-07-02T01:05:19;100517.28;;;24.30;100.00
50434;BME280;36361;38.954;-9.002;2023-07-02T01:06:29;100508.66;;;24.32;100.00
50434;BME280;36361;38.954;-9.002;2023-07-02T01:07:40;100517.00;;;24.32;100.00
50434;BME280;36361;38.954;-9.002;2023-07-02T01:08:47;100515.03;;;24.19;100.00
50434;BME280;36361;38.954;-9.002;2023-07-02T01:09:57;100513.47;;;24.26;100.00
50434;BME280;36361;38.954;-9.002;2023-07-02T01:11:19;100515.34;;;24.17;100.00
50434;BME280;36361;38.954;-9.002;2023-07-02T01:12:22;100513.41;;;23.90;100.00
50434;BME280;36361;38.954;-9.002;2023-07-02T01:13:33;100515.47;;;23.98;100.00
50434;BME280;36361;38.954;-9.002;2023-07-02T01:14:58;100500.72;;;24.39;100.00
50434;BME280;36361;38.954;-9.002;2023-07-02T01:16:15;100507.81;;;24.18;100.00
50434;BME280;36361;38.954;-9.002;2023-07-02T01:17:22;100500.84;;;24.34;100.00
50434;BME280;36361;38.954;-9.002;2023-07-02T01:18:29;100500.28;;;24.46;100.00
50434;BME280;36361;38.954;-9.002;2023-07-02T01:21:01;100501.03;;;24.24;100.00
50434;BME280;36361;38.954;-9.002;2023-07-02T01:22:07;100495.66;;;24.13;100.00
50434;BME280;36361;38.954;-9.002;2023-07-02T01:23:18;100499.38;;;23.95;100.00
50434;BME280;36361;38.954;-9.002;2023-07-02T01:24:21;100496.91;;;24.35;100.00
50434;BME280;36361;38.954;-9.002;2023-07-02T01:25:37;100499.69;;;24.21;100.00
50434;BME280;36361;38.954;-9.002;2023-07-02T01:26:42;100496.19;;;24.16;100.00
50434;BME280;36361;38.954;-9.002;2023-07-02T01:27:49;100489.09;;;24.37;100.00
50434;BME280;36361;38.954;-9.002;2023-07-02T01:28:59;100494.91;;;24.49;100.00
50434;BME280;36361;38.954;-9.002;2023-07-02T01:30:03;100498.97;;;24.43;100.00
50434;BME280;36361;38.954;-9.002;2023-07-02T01:31:17;100490.09;;;24.41;100.00
50434;BME280;36361;38.954;-9.002;2023-07-02T01:32:29;100495.16;;;24.39;100.00
50434;BME280;36361;38.954;-9.002;2023-07-02T01:33:36;100492.59;;;24.43;100.00
50434;BME280;36361;38.954;-9.002;2023-07-02T01:34:46;100492.38;;;24.39;100.00
50434;BME280;36361;38.954;-9.002;2023-07-02T01:36:02;100487.22;;;24.46;100.00
50434;BME280;36361;38.954;-9.002;2023-07-02T01:37:11;100492.59;;;24.43;100.00
50434;BME280;36361;38.954;-9.002;2023-07-02T01:38:36;100488.66;;;24.44;100.00
50434;BME280;36361;38.954;-9.002;2023-07-02T01:39:52;100488.66;;;24.30;100.00
50434;BME280;36361;38.954;-9.002;2023-07-02T01:40:56;100478.88;;;24.19;100.00
50434;BME280;36361;38.954;-9.002;2023-07-02T01:42:28;100485.69;;;24.26;100.00
50434;BME280;36361;38.954;-9.002;2023-07-02T01:43:38;100483.34;;;24.33;100.00
50434;BME280;36361;38.954;-9.002;2023-07-02T01:44:48;100486.22;;;24.15;100.00
50434;BME280;36361;38.954;-9.002;2023-07-02T01:47:39;100484.38;;;23.96;100.00
50434;BME280;36361;38.954;-9.002;2023-07-02T01:48:43;100485.91;;;23.75;100.00
50434;BME280;36361;38.954;-9.002;2023-07-02T01:50:06;100477.78;;;23.92;100.00
50434;BME280;36361;38.954;-9.002;2023-07-02T01:51:14;100474.09;;;23.69;100.00
50434;BME280;36361;38.954;-9.002;2023-07-02T01:53:41;100473.84;;;23.66;100.00
50434;BME280;36361;38.954;-9.002;2023-07-02T01:55:02;100482.31;;;23.88;100.00
50434;BME280;36361;38.954;-9.002;2023-07-02T01:56:11;100475.44;;;23.39;100.00
50434;BME280;36361;38.954;-9.002;2023-07-02T01:57:38;100473.84;;;23.66;100.00
50434;BME280;36361;38.954;-9.002;2023-07-02T01:58:42;100473.16;;;23.60;100.00
50434;BME280;36361;38.954;-9.002;2023-07-02T01:59:45;100469.75;;;23.91;100.00
50434;BME280;36361;38.954;-9.002;2023-07-02T02:01:01;100470.63;;;23.45;100.00
50434;BME280;36361;38.954;-9.002;2023-07-02T02:02:20;100470.25;;;23.65;100.00
50434;BME280;36361;38.954;-9.002;2023-07-02T02:03:36;100465.44;;;23.98;100.00
50434;BME280;36361;38.954;-9.002;2023-07-02T02:04:39;100461.91;;;24.06;100.00
50434;BME280;36361;38.954;-9.002;2023-07-02T02:05:55;100469.22;;;24.16;100.00
50434;BME280;36361;38.954;-9.002;2023-07-02T02:06:59;100463.97;;;24.15;100.00
50434;BME280;36361;38.954;-9.002;2023-07-02T02:08:05;100465.91;;;24.28;100.00
50434;BME280;36361;38.954;-9.002;2023-07-02T02:09:34;100463.34;;;24.18;100.00
50434;BME280;36361;38.954;-9.002;2023-07-02T02:10:41;100464.75;;;24.29;100.00
50434;BME280;36361;38.954;-9.002;2023-07-02T02:11:52;100458.59;;;24.32;100.00
50434;BME280;36361;38.954;-9.002;2023-07-02T02:12:59;100457.78;;;24.31;100.00
50434;BME280;36361;38.954;-9.002;2023-07-02T02:14:21;100465.72;;;24.10;100.00
50434;BME280;36361;38.954;-9.002;2023-07-02T02:15:40;100453.91;;;23.64;100.00
50434;BME280;36361;38.954;-9.002;2023-07-02T02:16:50;100451.38;;;23.35;100.00
50434;BME280;36361;38.954;-9.002;2023-07-02T02:17:59;100453.69;;;23.74;100.00
50434;BME280;36361;38.954;-9.002;2023-07-02T02:19:10;100458.44;;;23.87;100.00
50434;BME280;36361;38.954;-9.002;2023-07-02T02:20:23;100461.09;;;24.06;100.00
50434;BME280;36361;38.954;-9.002;2023-07-02T02:21:26;100461.88;;;24.20;100.00
50434;BME280;36361;38.954;-9.002;2023-07-02T02:22:30;100461.38;;;24.04;100.00
50434;BME280;36361;38.954;-9.002;2023-07-02T02:23:37;100462.94;;;23.83;100.00
50434;BME280;36361;38.954;-9.002;2023-07-02T02:24:40;100461.34;;;23.49;100.00
50434;BME280;36361;38.954;-9.002;2023-07-02T02:25:44;100457.06;;;23.11;100.00
50434;BME280;36361;38.954;-9.002;2023-07-02T02:26:53;100459.63;;;23.53;100.00
50434;BME280;36361;38.954;-9.002;2023-07-02T02:28:13;100464.59;;;23.84;100.00
50434;BME280;36361;38.954;-9.002;2023-07-02T02:29:17;100465.84;;;23.78;100.00
50434;BME280;36361;38.954;-9.002;2023-07-02T02:30:21;100457.69;;;23.68;100.00
50434;BME280;36361;38.954;-9.002;2023-07-02T02:31:35;100457.50;;;23.18;100.00
50434;BME280;36361;38.954;-9.002;2023-07-02T02:32:39;100463.06;;;23.18;100.00
50434;BME280;36361;38.954;-9.002;2023-07-02T02:33:49;100464.25;;;23.12;100.00
50434;BME280;36361;38.954;-9.002;2023-07-02T02:34:54;100459.16;;;23.19;100.00
50434;BME280;36361;38.954;-9.002;2023-07-02T02:36:01;100469.28;;;23.42;100.00
50434;BME280;36361;38.954;-9.002;2023-07-02T02:37:08;100459.78;;;23.30;100.00
50434;BME280;36361;38.954;-9.002;2023-07-02T02:38:14;100466.19;;;23.58;100.00
50434;BME280;36361;38.954;-9.002;2023-07-02T02:39:18;100466.66;;;23.65;100.00
50434;BME280;36361;38.954;-9.002;2023-07-02T02:41:56;100473.06;;;23.79;100.00
50434;BME280;36361;38.954;-9.002;2023-07-02T02:43:15;100468.94;;;23.90;100.00
50434;BME280;36361;38.954;-9.002;2023-07-02T02:44:27;100474.38;;;23.95;100.00
50434;BME280;36361;38.954;-9.002;2023-07-02T02:45:31;100472.22;;;24.06;100.00
50434;BME280;36361;38.954;-9.002;2023-07-02T02:46:43;100476.00;;;24.24;100.00
50434;BME280;36361;38.954;-9.002;2023-07-02T02:48:06;100472.59;;;24.27;100.00
50434;BME280;36361;38.954;-9.002;2023-07-02T02:49:09;100476.38;;;24.31;100.00
50434;BME280;36361;38.954;-9.002;2023-07-02T02:50:28;100477.47;;;24.07;100.00
50434;BME280;36361;38.954;-9.002;2023-07-02T02:51:47;100475.63;;;23.89;100.00
50434;BME280;36361;38.954;-9.002;2023-07-02T02:53:21;100477.56;;;24.02;100.00
50434;BME280;36361;38.954;-9.002;2023-07-02T02:54:28;100477.97;;;24.09;100.00
50434;BME280;36361;38.954;-9.002;2023-07-02T02:55:36;100478.25;;;24.22;100.00
50434;BME280;36361;38.954;-9.002;2023-07-02T02:57:01;100476.94;;;24.33;100.00
50434;BME280;36361;38.954;-9.002;2023-07-02T02:58:20;100473.09;;;24.29;100.00
50434;BME280;36361;38.954;-9.002;2023-07-02T02:59:26;100474.03;;;24.24;100.00
50434;BME280;36361;38.954;-9.002;2023-07-02T03:00:46;100472.19;;;24.20;100.00
50434;BME280;36361;38.954;-9.002;2023-07-02T03:01:59;100466.94;;;24.18;100.00
50434;BME280;36361;38.954;-9.002;2023-07-02T03:03:14;100471.19;;;24.16;100.00
50434;BME280;36361;38.954;-9.002;2023-07-02T03:04:20;100467.34;;;24.11;100.00
50434;BME280;36361;38.954;-9.002;2023-07-02T03:05:31;100481.56;;;24.24;100.00
50434;BME280;36361;38.954;-9.002;2023-07-02T03:06:50;100475.72;;;23.84;100.00
50434;BME280;36361;38.954;-9.002;2023-07-02T03:07:58;100484.47;;;23.91;100.00
50434;BME280;36361;38.954;-9.002;2023-07-02T03:09:02;100477.56;;;24.02;100.00
50434;BME280;36361;38.954;-9.002;2023-07-02T03:10:12;100476.13;;;24.05;100.00
50434;BME280;36361;38.954;-9.002;2023-07-02T03:11:16;100476.84;;;24.24;100.00
50434;BME280;36361;38.954;-9.002;2023-07-02T03:12:23;100477.59;;;23.89;100.00
50434;BME280;36361;38.954;-9.002;2023-07-02T03:13:32;100472.94;;;23.98;100.00
50434;BME280;36361;38.954;-9.002;2023-07-02T03:14:43;100472.19;;;24.20;100.00
50434;BME280;36361;38.954;-9.002;2023-07-02T03:16:02;100471.78;;;24.12;100.00
50434;BME280;36361;38.954;-9.002;2023-07-02T03:17:03;100470.75;;;24.08;100.00
50434;BME280;36361;38.954;-9.002;2023-07-02T03:18:12;100471.19;;;24.16;100.00
50434;BME280;36361;38.954;-9.002;2023-07-02T03:19:16;100463.22;;;24.23;100.00
50434;BME280;36361;38.954;-9.002;2023-07-02T03:20:26;100462.09;;;24.24;100.00
50434;BME280;36361;38.954;-9.002;2023-07-02T03:21:29;100468.69;;;24.28;100.00
50434;BME280;36361;38.954;-9.002;2023-07-02T03:22:36;100461.09;;;24.33;100.00
50434;BME280;36361;38.954;-9.002;2023-07-02T03:23:52;100468.25;;;24.21;100.00
50434;BME280;36361;38.954;-9.002;2023-07-02T03:24:58;100470.56;;;23.91;100.00
50434;BME280;36361;38.954;-9.002;2023-07-02T03:26:14;100473.63;;;24.03;100.00
50434;BME280;36361;38.954;-9.002;2023-07-02T03:29:07;100474.47;;;23.76;100.00
50434;BME280;36361;38.954;-9.002;2023-07-02T03:30:41;100474.00;;;23.42;100.00
50434;BME280;36361;38.954;-9.002;2023-07-02T03:32:01;100465.69;;;23.09;100.00
50434;BME280;36361;38.954;-9.002;2023-07-02T03:33:08;100465.25;;;23.35;100.00
50434;BME280;36361;38.954;-9.002;2023-07-02T03:34:12;100469.94;;;23.67;100.00
50434;BME280;36361;38.954;-9.002;2023-07-02T03:35:19;100466.03;;;23.68;100.00
50434;BME280;36361;38.954;-9.002;2023-07-02T03:36:32;100466.59;;;23.37;100.00
50434;BME280;36361;38.954;-9.002;2023-07-02T03:38:59;100471.28;;;22.71;100.00
50434;BME280;36361;38.954;-9.002;2023-07-02T03:40:06;100467.31;;;22.96;100.00
50434;BME280;36361;38.954;-9.002;2023-07-02T03:41:19;100465.91;;;23.13;100.00
50434;BME280;36361;38.954;-9.002;2023-07-02T03:42:26;100465.91;;;23.13;100.00
50434;BME280;36361;38.954;-9.002;2023-07-02T03:43:41;100465.22;;;23.21;100.00
50434;BME280;36361;38.954;-9.002;2023-07-02T03:44:54;100464.06;;;23.22;100.00
50434;BME280;36361;38.954;-9.002;2023-07-02T03:46:00;100459.38;;;23.36;100.00
50434;BME280;36361;38.954;-9.002;2023-07-02T03:47:06;100459.56;;;23.26;100.00
50434;BME280;36361;38.954;-9.002;2023-07-02T03:48:24;100461.25;;;23.54;100.00
50434;BME280;36361;38.954;-9.002;2023-07-02T03:49:42;100459.19;;;23.46;100.00
50434;BME280;36361;38.954;-9.002;2023-07-02T03:50:52;100458.50;;;23.08;100.00
50434;BME280;36361;38.954;-9.002;2023-07-02T03:51:56;100455.66;;;23.27;100.00
50434;BME280;36361;38.954;-9.002;2023-07-02T03:53:00;100456.41;;;23.46;100.00
50434;BME280;36361;38.954;-9.002;2023-07-02T03:54:19;100459.31;;;23.09;100.00
50434;BME280;36361;38.954;-9.002;2023-07-02T03:55:29;100456.66;;;22.28;100.00
50434;BME280;36361;38.954;-9.002;2023-07-02T03:56:36;100461.53;;;22.74;100.00
50434;BME280;36361;38.954;-9.002;2023-07-02T03:57:49;100458.84;;;23.20;100.00
50434;BME280;36361;38.954;-9.002;2023-07-02T03:59:08;100460.03;;;22.63;100.00
50434;BME280;36361;38.954;-9.002;2023-07-02T04:00:27;100457.88;;;22.60;100.00
50434;BME280;36361;38.954;-9.002;2023-07-02T04:01:43;100460.88;;;22.45;100.00
50434;BME280;36361;38.954;-9.002;2023-07-02T04:02:56;100457.53;;;22.05;100.00
50434;BME280;36361;38.954;-9.002;2023-07-02T04:04:02;100474.22;;;22.00;100.00
50434;BME280;36361;38.954;-9.002;2023-07-02T04:05:12;100467.50;;;21.58;100.00
50434;BME280;36361;38.954;-9.002;2023-07-02T04:06:22;100471.50;;;21.95;100.00
50434;BME280;36361;38.954;-9.002;2023-07-02T04:07:50;100468.13;;;21.98;100.00
50434;BME280;36361;38.954;-9.002;2023-07-02T04:09:00;100467.19;;;21.83;100.00
50434;BME280;36361;38.954;-9.002;2023-07-02T04:10:10;100461.47;;;21.99;100.00
50434;BME280;36361;38.954;-9.002;2023-07-02T04:11:17;100457.41;;;22.15;100.00
50434;BME280;36361;38.954;-9.002;2023-07-02T04:12:21;100464.25;;;22.23;100.00
50434;BME280;36361;38.954;-9.002;2023-07-02T04:13:25;100464.47;;;22.02;100.00
50434;BME280;36361;38.954;-9.002;2023-07-02T04:14:29;100461.84;;;21.68;100.00
50434;BME280;36361;38.954;-9.002;2023-07-02T04:15:35;100464.94;;;21.38;100.00
50434;BME280;36361;38.954;-9.002;2023-07-02T04:16:48;100465.03;;;20.93;100.00
50434;BME280;36361;38.954;-9.002;2023-07-02T04:17:52;100466.34;;;21.01;100.00
50434;BME280;36361;38.954;-9.002;2023-07-02T04:19:11;100471.03;;;21.06;100.00
50434;BME280;36361;38.954;-9.002;2023-07-02T04:20:28;100467.25;;;21.31;100.00
50434;BME280;36361;38.954;-9.002;2023-07-02T04:21:38;100460.97;;;21.49;100.00
50434;BME280;36361;38.954;-9.002;2023-07-02T04:23:00;100460.09;;;21.19;100.00
50434;BME280;36361;38.954;-9.002;2023-07-02T04:24:17;100454.66;;;21.09;100.00
50434;BME280;36361;38.954;-9.002;2023-07-02T04:25:24;100462.53;;;20.97;100.00
50434;BME280;36361;38.954;-9.002;2023-07-02T04:26:34;100455.97;;;20.88;100.00
50434;BME280;36361;38.954;-9.002;2023-07-02T04:27:53;100458.41;;;21.23;100.00
50434;BME280;36361;38.954;-9.002;2023-07-02T04:29:12;100457.06;;;21.50;100.00
50434;BME280;36361;38.954;-9.002;2023-07-02T04:30:31;100471.41;;;21.28;100.00
50434;BME280;36361;38.954;-9.002;2023-07-02T04:31:38;100468.38;;;20.90;100.00
50434;BME280;36361;38.954;-9.002;2023-07-02T04:32:45;100463.88;;;21.34;100.00
50434;BME280;36361;38.954;-9.002;2023-07-02T04:33:56;100471.69;;;21.79;100.00
50434;BME280;36361;38.954;-9.002;2023-07-02T04:35:19;100468.22;;;21.69;100.00
50434;BME280;36361;38.954;-9.002;2023-07-02T04:36:34;100468.28;;;21.88;100.00
50434;BME280;36361;38.954;-9.002;2023-07-02T04:37:53;100459.94;;;21.40;100.00
50434;BME280;36361;38.954;-9.002;2023-07-02T04:39:00;100460.66;;;22.22;100.00
50434;BME280;36361;38.954;-9.002;2023-07-02T04:40:10;100450.34;;;21.80;100.00
50434;BME280;36361;38.954;-9.002;2023-07-02T04:41:19;100455.03;;;22.03;100.00
50434;BME280;36361;38.954;-9.002;2023-07-02T04:42:30;100455.38;;;22.21;100.00
50434;BME280;36361;38.954;-9.002;2023-07-02T04:43:47;100457.63;;;22.19;100.00
50434;BME280;36361;38.954;-9.002;2023-07-02T04:45:20;100466.03;;;21.90;100.00
50434;BME280;36361;38.954;-9.002;2023-07-02T04:46:26;100459.53;;;22.23;100.00
50434;BME280;36361;38.954;-9.002;2023-07-02T04:47:30;100448.66;;;22.64;100.00
50434;BME280;36361;38.954;-9.002;2023-07-02T04:48:40;100443.03;;;22.88;100.00
50434;BME280;36361;38.954;-9.002;2023-07-02T04:49:53;100454.41;;;23.06;100.00
50434;BME280;36361;38.954;-9.002;2023-07-02T04:51:12;100451.25;;;22.93;100.00
50434;BME280;36361;38.954;-9.002;2023-07-02T04:52:22;100447.34;;;23.27;100.00
50434;BME280;36361;38.954;-9.002;2023-07-02T04:53:32;100448.28;;;23.36;100.00
50434;BME280;36361;38.954;-9.002;2023-07-02T04:54:38;100458.06;;;23.01;100.00
50434;BME280;36361;38.954;-9.002;2023-07-02T04:55:51;100453.84;;;23.04;100.00
50434;BME280;36361;38.954;-9.002;2023-07-02T04:57:01;100445.81;;;22.88;100.00
50434;BME280;36361;38.954;-9.002;2023-07-02T04:58:11;100440.41;;;22.78;100.00
50434;BME280;36361;38.954;-9.002;2023-07-02T04:59:24;100446.34;;;23.04;100.00
50434;BME280;36361;38.954;-9.002;2023-07-02T05:00:43;100438.88;;;23.18;100.00
50434;BME280;36361;38.954;-9.002;2023-07-02T05:01:50;100448.25;;;23.22;100.00
50434;BME280;36361;38.954;-9.002;2023-07-02T05:03:06;100442.91;;;23.26;100.00
50434;BME280;36361;38.954;-9.002;2023-07-02T05:04:13;100445.69;;;23.26;100.00
50434;BME280;36361;38.954;-9.002;2023-07-02T05:05:23;100437.13;;;23.09;100.00
50434;BME280;36361;38.954;-9.002;2023-07-02T05:06:41;100443.97;;;22.97;100.00
50434;BME280;36361;38.954;-9.002;2023-07-02T05:07:45;100442.06;;;23.12;100.00
50434;BME280;36361;38.954;-9.002;2023-07-02T05:08:55;100445.06;;;23.29;100.00
50434;BME280;36361;38.954;-9.002;2023-07-02T05:11:39;100449.97;;;23.05;100.00
50434;BME280;36361;38.954;-9.002;2023-07-02T05:13:01;100446.47;;;22.80;100.00
50434;BME280;36361;38.954;-9.002;2023-07-02T05:14:11;100444.59;;;22.57;100.00
50434;BME280;36361;38.954;-9.002;2023-07-02T05:15:15;100445.00;;;22.31;100.00
50434;BME280;36361;38.954;-9.002;2023-07-02T05:16:19;100448.72;;;21.79;100.00
50434;BME280;36361;38.954;-9.002;2023-07-02T05:17:35;100447.94;;;21.73;100.00
50434;BME280;36361;38.954;-9.002;2023-07-02T05:18:48;100450.13;;;21.76;100.00
50434;BME280;36361;38.954;-9.002;2023-07-02T05:19:55;100459.00;;;21.97;100.00
50434;BME280;36361;38.954;-9.002;2023-07-02T05:21:02;100447.94;;;21.97;100.00
50434;BME280;36361;38.954;-9.002;2023-07-02T05:22:25;100445.34;;;21.58;100.00
50434;BME280;36361;38.954;-9.002;2023-07-02T05:23:34;100453.78;;;21.72;100.00
50434;BME280;36361;38.954;-9.002;2023-07-02T05:24:44;100459.78;;;21.79;100.00
50434;BME280;36361;38.954;-9.002;2023-07-02T05:25:52;100454.94;;;21.90;100.00
50434;BME280;36361;38.954;-9.002;2023-07-02T05:27:05;100458.38;;;21.81;100.00
50434;BME280;36361;38.954;-9.002;2023-07-02T05:29:53;100453.13;;;21.56;100.00
50434;BME280;36361;38.954;-9.002;2023-07-02T05:31:00;100455.13;;;21.21;100.00
50434;BME280;36361;38.954;-9.002;2023-07-02T05:32:09;100453.53;;;21.44;100.00
50434;BME280;36361;38.954;-9.002;2023-07-02T05:33:25;100457.44;;;21.67;100.00
50434;BME280;36361;38.954;-9.002;2023-07-02T05:34:32;100456.44;;;21.58;100.00
50434;BME280;36361;38.954;-9.002;2023-07-02T05:35:51;100459.28;;;21.48;100.00
50434;BME280;36361;38.954;-9.002;2023-07-02T05:36:54;100452.00;;;21.57;100.00
50434;BME280;36361;38.954;-9.002;2023-07-02T05:38:04;100462.59;;;21.74;100.00
50434;BME280;36361;38.954;-9.002;2023-07-02T05:39:14;100463.25;;;21.90;100.00
50434;BME280;36361;38.954;-9.002;2023-07-02T05:41:46;100457.75;;;21.84;100.00
50434;BME280;36361;38.954;-9.002;2023-07-02T05:42:58;100462.59;;;21.98;100.00
50434;BME280;36361;38.954;-9.002;2023-07-02T05:44:03;100466.31;;;22.12;100.00
50434;BME280;36361;38.954;-9.002;2023-07-02T05:45:07;100470.38;;;21.96;100.00
50434;BME280;36361;38.954;-9.002;2023-07-02T05:46:14;100473.13;;;21.77;100.00
50434;BME280;36361;38.954;-9.002;2023-07-02T05:48:53;100465.84;;;21.57;100.00
50434;BME280;36361;38.954;-9.002;2023-07-02T05:50:07;100464.31;;;21.46;100.00
50434;BME280;36361;38.954;-9.002;2023-07-02T05:51:32;100466.50;;;21.97;100.00
50434;BME280;36361;38.954;-9.002;2023-07-02T05:52:42;100470.38;;;21.96;100.00
50434;BME280;36361;38.954;-9.002;2023-07-02T05:53:45;100464.28;;;21.94;100.00
50434;BME280;36361;38.954;-9.002;2023-07-02T05:54:49;100467.19;;;21.83;100.00
50434;BME280;36361;38.954;-9.002;2023-07-02T05:56:11;100474.50;;;21.74;100.00
50434;BME280;36361;38.954;-9.002;2023-07-02T05:57:18;100471.72;;;21.74;100.00
50434;BME280;36361;38.954;-9.002;2023-07-02T05:58:33;100466.38;;;21.83;100.00
50434;BME280;36361;38.954;-9.002;2023-07-02T06:00:05;100478.75;;;21.91;100.00
50434;BME280;36361;38.954;-9.002;2023-07-02T06:01:18;100477.06;;;21.95;100.00
50434;BME280;36361;38.954;-9.002;2023-07-02T06:02:34;100476.75;;;21.96;100.00
50434;BME280;36361;38.954;-9.002;2023-07-02T06:03:41;100479.22;;;21.98;100.00
50434;BME280;36361;38.954;-9.002;2023-07-02T06:04:54;100479.22;;;21.98;100.00
50434;BME280;36361;38.954;-9.002;2023-07-02T06:06:16;100478.56;;;21.82;100.00
50434;BME280;36361;38.954;-9.002;2023-07-02T06:07:20;100484.69;;;22.03;100.00
50434;BME280;36361;38.954;-9.002;2023-07-02T06:08:30;100480.88;;;21.99;100.00
50434;BME280;36361;38.954;-9.002;2023-07-02T06:10:59;100488.38;;;22.22;100.00
50434;BME280;36361;38.954;-9.002;2023-07-02T06:12:02;100476.59;;;22.30;100.00
50434;BME280;36361;38.954;-9.002;2023-07-02T06:13:09;100482.84;;;22.22;100.00
50434;BME280;36361;38.954;-9.002;2023-07-02T06:14:13;100486.59;;;22.31;100.00
50434;BME280;36361;38.954;-9.002;2023-07-02T06:15:20;100485.97;;;22.34;100.00
50434;BME280;36361;38.954;-9.002;2023-07-02T06:16:34;100478.94;;;22.42;100.00
50434;BME280;36361;38.954;-9.002;2023-07-02T06:17:40;100484.09;;;22.49;100.00
50434;BME280;36361;38.954;-9.002;2023-07-02T06:18:59;100486.03;;;22.67;100.00
50434;BME280;36361;38.954;-9.002;2023-07-02T06:20:25;100479.31;;;22.73;100.00
50434;BME280;36361;38.954;-9.002;2023-07-02T06:21:36;100481.78;;;22.75;100.00
50434;BME280;36361;38.954;-9.002;2023-07-02T06:22:39;100483.66;;;22.79;100.00
50434;BME280;36361;38.954;-9.002;2023-07-02T06:23:47;100483.41;;;22.76;100.00
50434;BME280;36361;38.954;-9.002;2023-07-02T06:24:53;100480.50;;;22.67;100.00